METAR Data
IDs: Format: Raw Decoded Include TAF

Data at: 0238 UTC 29 May 2022

LKPR 290230Z 22007KT CAVOK 04/02 Q1014 NOSIG